Lilly, Illinois
Current Conditions -  °F | °C
As of 2:56 PM on Thursday 23 Oct 2014 (Local Time) from KBMI Reporting Station
Clear Clear  
Wind Chill: 14°   Ceiling: Unl
Heat Index: 14°   Visibility: 10mi
Dew Point:   Wind: 14mph
Humidity: 58%   Direction: 180°S
Pressure: 30.12"   Gusts: NA
Location:  40.5282°N, 89.3251°W
Report Text: KBMI 231956Z 18012KT 10SM CLR 14/06 A3012 RMK AO2 T01440061 SLP203
Loading
Personal Weather Stations






























Interactive Weather Map
Tropical Storm Tracking
New forecast layout! Learn more

10-Day Weather Forecast

Advertisements
Track Severe Weather on mobile